Time;durP1;ratioP1;P1;durP2;ratioP2;P2;SDS_P1;SDS_P2;PMS_P1;PMS_P2;Temp;Humidity;BMP_temperature;BMP_pressure;BME280_temperature;BME280_humidity;BME280_pressure;Samples;Min_cycle;Max_cycle;Signal;HPM_P1;HPM_P2
2022/08/28 00:00:12;;;;;;;11.30;3.10;;;;;;;15.47;78.53;101004.37;107883;1271;72692;-85
2022/08/28 00:02:40;;;;;;;13.20;3.00;;;;;;;15.49;78.66;101004.70;107118;1271;72338;-84
2022/08/28 00:05:08;;;;;;;12.70;3.20;;;;;;;15.50;78.79;101009.92;107097;1271;62392;-84
2022/08/28 00:07:35;;;;;;;9.50;3.40;;;;;;;15.54;78.70;101004.80;106992;1271;61159;-84
2022/08/28 00:10:04;;;;;;;11.80;3.30;;;;;;;15.56;78.80;101005.05;106751;1270;75308;-85
2022/08/28 00:12:32;;;;;;;14.70;3.50;;;;;;;15.59;78.76;101004.90;107441;1271;72471;-84
2022/08/28 00:14:59;;;;;;;10.70;3.40;;;;;;;15.62;78.58;101008.56;106629;1271;74730;-85
2022/08/28 00:17:26;;;;;;;11.90;3.30;;;;;;;15.65;78.45;101008.46;107263;1271;62090;-86
2022/08/28 00:19:53;;;;;;;11.30;3.30;;;;;;;15.68;78.42;101005.59;107113;1271;61153;-84
2022/08/28 00:22:20;;;;;;;12.80;3.90;;;;;;;15.69;78.30;101002.59;107606;1271;75962;-84
2022/08/28 00:24:47;;;;;;;10.70;3.70;;;;;;;15.74;78.05;101007.04;107231;1271;71377;-86
2022/08/28 00:30:45;;;;;;;13.30;3.40;;;;;;;15.77;77.65;101009.42;106916;1277;62018;-85
2022/08/28 00:33:18;;;;;;;10.70;2.90;;;;;;;15.79;77.66;101014.70;107021;1277;60314;-85
2022/08/28 00:35:46;;;;;;;13.00;3.20;;;;;;;15.79;77.66;101014.52;107026;1271;74944;-85
2022/08/28 00:38:14;;;;;;;10.10;3.40;;;;;;;15.81;77.48;101014.45;107103;1271;72191;-84
2022/08/28 00:40:43;;;;;;;13.70;3.10;;;;;;;15.80;77.55;101010.84;107267;1271;74291;-85
2022/08/28 00:43:24;;;;;;;9.40;2.90;;;;;;;15.81;77.51;101012.90;107123;1272;63159;-85
2022/08/28 00:45:51;;;;;;;14.80;3.40;;;;;;;15.82;77.49;101011.51;107449;1271;61686;-85
2022/08/28 00:48:18;;;;;;;11.70;3.10;;;;;;;15.82;77.58;101018.14;107083;1271;76026;-84
2022/08/28 00:53:33;;;;;;;12.90;3.60;;;;;;;15.82;77.52;101011.81;107298;1271;72992;-85
2022/08/28 00:56:09;;;;;;;12.80;3.60;;;;;;;15.83;77.46;101014.52;106861;1272;63454;-84
2022/08/28 00:58:42;;;;;;;12.80;3.80;;;;;;;15.82;77.61;101011.95;107298;1271;63555;-84
2022/08/28 01:01:09;;;;;;;11.00;3.20;;;;;;;15.83;77.53;101006.48;107477;1273;76945;-84
2022/08/28 01:03:36;;;;;;;13.30;3.40;;;;;;;15.86;77.44;101010.45;107574;1272;72641;-84
2022/08/28 01:06:09;;;;;;;10.70;3.00;;;;;;;15.87;77.50;101006.34;107466;1271;71909;-84
2022/08/28 01:08:39;;;;;;;11.90;3.40;;;;;;;15.89;77.40;101010.27;107641;1271;63252;-84
2022/08/28 01:11:11;;;;;;;13.00;3.40;;;;;;;15.93;77.25;101008.14;107163;1274;61800;-85
2022/08/28 01:13:40;;;;;;;12.20;3.00;;;;;;;15.95;77.23;101005.02;107067;1274;75344;-84
2022/08/28 01:16:07;;;;;;;11.20;3.50;;;;;;;15.94;77.26;101006.75;107346;1274;73118;-84
2022/08/28 01:18:34;;;;;;;15.70;3.30;;;;;;;15.93;77.23;101009.30;107353;1274;72634;-84
2022/08/28 01:21:12;;;;;;;10.70;3.50;;;;;;;15.93;77.21;101013.30;107310;1274;61257;-85
2022/08/28 01:24:13;;;;;;;12.10;3.70;;;;;;;15.93;77.39;101010.83;107136;1271;61246;-83
2022/08/28 01:26:41;;;;;;;12.00;3.20;;;;;;;15.95;77.18;101011.23;107597;1271;76262;-84
2022/08/28 01:29:10;;;;;;;9.30;3.20;;;;;;;15.96;77.07;101010.74;107243;1274;71426;-85
2022/08/28 01:31:38;;;;;;;11.60;3.50;;;;;;;15.96;76.95;101014.61;107258;1271;74451;-85
2022/08/28 01:34:08;;;;;;;8.40;3.10;;;;;;;15.99;77.01;101016.27;107427;1274;62024;-85
2022/08/28 01:36:35;;;;;;;14.70;4.00;;;;;;;15.99;77.05;101015.20;107704;1271;61379;-85
2022/08/28 01:39:16;;;;;;;13.20;3.70;;;;;;;15.99;76.96;101016.80;107135;1274;75182;-84
2022/08/28 01:41:46;;;;;;;10.80;3.30;;;;;;;15.99;76.95;101014.12;107261;1271;72653;-84
2022/08/28 01:44:15;;;;;;;8.50;3.30;;;;;;;15.98;76.96;101016.89;107144;1274;75367;-84
2022/08/28 01:46:44;;;;;;;12.90;3.60;;;;;;;15.98;77.02;101020.99;107549;1274;62673;-85
2022/08/28 01:49:12;;;;;;;10.60;3.40;;;;;;;15.96;76.93;101022.85;107249;1274;61698;-85
2022/08/28 01:51:40;;;;;;;12.30;3.80;;;;;;;15.96;76.94;101026.63;107212;1273;75486;-84
2022/08/28 01:54:08;;;;;;;11.60;3.40;;;;;;;15.95;77.06;101027.58;107048;1271;71872;-84
2022/08/28 01:56:36;;;;;;;9.90;3.00;;;;;;;15.94;76.99;101027.21;107550;1267;73442;-85
2022/08/28 01:59:07;;;;;;;12.90;3.50;;;;;;;15.93;77.03;101021.98;107205;1271;61985;-85
2022/08/28 02:01:34;;;;;;;11.70;3.00;;;;;;;15.93;77.07;101025.23;107733;1270;62766;-85
2022/08/28 02:04:03;;;;;;;11.90;3.20;;;;;;;15.90;76.99;101024.89;107772;1271;75031;-83
2022/08/28 02:06:30;;;;;;;14.60;3.50;;;;;;;15.88;77.15;101026.98;107711;1271;71246;-85
2022/08/28 02:08:58;;;;;;;10.30;3.10;;;;;;;15.87;77.43;101030.25;107095;1271;73004;-83
2022/08/28 02:11:25;;;;;;;10.40;3.40;;;;;;;15.85;77.42;101033.37;107363;1271;65190;-85
2022/08/28 02:13:53;;;;;;;13.50;3.30;;;;;;;15.86;77.37;101031.77;107273;1271;61122;-84
2022/08/28 02:16:22;;;;;;;11.60;3.30;;;;;;;15.86;77.39;101034.08;106791;1272;74895;-86
2022/08/28 02:18:49;;;;;;;11.00;2.90;;;;;;;15.84;77.35;101034.69;106996;1271;71913;-84
2022/08/28 02:21:18;;;;;;;13.70;3.40;;;;;;;15.82;77.46;101032.90;107008;1271;74214;-88
2022/08/28 02:23:45;;;;;;;13.20;3.60;;;;;;;15.78;77.31;101037.08;107540;1271;62458;-87
2022/08/28 02:26:13;;;;;;;13.80;3.20;;;;;;;15.76;77.30;101035.26;106771;1271;61197;-85
2022/08/28 02:28:41;;;;;;;11.00;3.20;;;;;;;15.70;77.59;101037.42;107039;1271;76081;-85
2022/08/28 02:31:09;;;;;;;10.40;3.60;;;;;;;15.68;77.51;101036.32;107011;1271;72354;-84
2022/08/28 02:33:43;;;;;;;13.80;3.40;;;;;;;15.64;77.73;101034.79;107688;1271;72739;-85
2022/08/28 02:36:12;;;;;;;10.90;3.00;;;;;;;15.63;77.56;101032.60;107703;1271;61954;-85
2022/08/28 02:38:39;;;;;;;11.10;3.10;;;;;;;15.63;77.74;101033.70;107334;1271;60372;-83
2022/08/28 02:41:10;;;;;;;11.00;3.10;;;;;;;15.60;77.85;101035.39;107316;1271;76156;-85
2022/08/28 02:43:38;;;;;;;13.00;3.50;;;;;;;15.57;77.96;101036.28;107471;1271;73322;-84
2022/08/28 02:46:08;;;;;;;13.60;3.40;;;;;;;15.54;78.10;101036.16;107781;1271;73784;-85
2022/08/28 02:48:37;;;;;;;13.10;3.40;;;;;;;15.49;78.37;101031.40;107666;1271;61980;-84
2022/08/28 02:51:12;;;;;;;10.80;3.30;;;;;;;15.48;78.34;101022.33;107290;1271;61180;-85
2022/08/28 02:53:40;;;;;;;10.60;3.40;;;;;;;15.44;78.63;101024.96;107389;1271;74847;-84
2022/08/28 02:56:07;;;;;;;9.70;2.80;;;;;;;15.42;78.70;101025.40;107032;1271;72789;-84
2022/08/28 02:58:35;;;;;;;10.30;2.90;;;;;;;15.42;78.82;101028.56;106986;1271;72957;-83
2022/08/28 03:01:09;;;;;;;11.90;3.10;;;;;;;15.42;78.89;101032.76;107233;1268;63373;-85
2022/08/28 03:03:38;;;;;;;9.60;3.10;;;;;;;15.42;78.80;101031.77;107722;1271;61275;-85
2022/08/28 03:06:08;;;;;;;11.20;3.70;;;;;;;15.43;78.78;101027.59;107193;1271;76525;-84
2022/08/28 03:08:35;;;;;;;14.10;3.10;;;;;;;15.46;78.65;101033.88;107340;1271;72979;-84
2022/08/28 03:11:02;;;;;;;9.50;3.00;;;;;;;15.48;78.60;101039.59;106934;1271;72983;-84
2022/08/28 03:13:32;;;;;;;11.70;3.10;;;;;;;15.50;78.64;101036.41;107358;1271;63086;-85
2022/08/28 03:15:59;;;;;;;11.00;3.20;;;;;;;15.52;78.52;101031.77;107146;1271;61543;-83
2022/08/28 03:18:29;;;;;;;10.00;2.70;;;;;;;15.56;78.44;101034.18;107326;1271;75171;-84
2022/08/28 03:20:56;;;;;;;11.70;3.00;;;;;;;15.58;78.38;101031.50;107408;1271;72297;-85
2022/08/28 03:23:26;;;;;;;11.50;2.70;;;;;;;15.58;78.28;101030.80;107681;1270;72884;-84
2022/08/28 03:25:57;;;;;;;15.30;3.00;;;;;;;15.61;78.28;101030.66;107199;1271;62986;-84
2022/08/28 03:28:26;;;;;;;11.70;3.30;;;;;;;15.61;78.18;101027.89;107604;1271;61672;-84
2022/08/28 03:30:54;;;;;;;11.70;3.00;;;;;;;15.62;78.06;101024.61;107470;1271;74874;-84
2022/08/28 03:33:21;;;;;;;8.80;3.30;;;;;;;15.61;78.08;101025.80;107292;1271;72580;-85
2022/08/28 03:35:48;;;;;;;10.60;3.20;;;;;;;15.60;78.08;101027.91;107235;1271;74244;-84
2022/08/28 03:38:16;;;;;;;10.40;2.90;;;;;;;15.58;78.16;101029.41;107241;1271;61984;-84
2022/08/28 03:40:45;;;;;;;11.10;3.10;;;;;;;15.55;78.19;101032.86;107652;1271;61730;-84
2022/08/28 03:43:15;;;;;;;10.10;3.20;;;;;;;15.49;78.15;101032.61;107367;1271;76083;-87
2022/08/28 03:45:52;;;;;;;13.40;3.50;;;;;;;15.47;78.17;101032.90;107514;1271;72579;-85
2022/08/28 03:48:19;;;;;;;10.90;3.40;;;;;;;15.44;78.39;101036.39;107803;1270;74312;-85
2022/08/28 03:50:46;;;;;;;10.00;2.70;;;;;;;15.43;78.43;101039.31;107815;1271;63259;-85
2022/08/28 03:53:14;;;;;;;10.10;2.80;;;;;;;15.39;78.64;101034.91;108215;1271;60529;-86
2022/08/28 03:55:42;;;;;;;9.70;2.80;;;;;;;15.37;78.68;101034.80;107409;1274;75975;-84
2022/08/28 03:58:09;;;;;;;9.70;2.90;;;;;;;15.35;78.64;101036.42;106851;1271;72745;-84
2022/08/28 04:00:45;;;;;;;9.10;3.10;;;;;;;15.33;78.76;101038.80;107591;1271;75233;-84
2022/08/28 04:03:12;;;;;;;8.60;2.70;;;;;;;15.34;78.93;101036.90;107188;1271;61928;-84
2022/08/28 04:05:40;;;;;;;8.70;2.70;;;;;;;15.34;78.95;101044.14;107312;1270;61134;-84
2022/08/28 04:08:08;;;;;;;11.10;2.80;;;;;;;15.32;78.92;101044.91;106981;1271;74848;-85
2022/08/28 04:10:35;;;;;;;12.90;3.00;;;;;;;15.30;78.88;101046.70;107496;1271;72521;-84
2022/08/28 04:13:02;;;;;;;8.80;2.80;;;;;;;15.29;79.04;101046.52;107658;1271;72884;-85
2022/08/28 04:15:30;;;;;;;13.40;3.70;;;;;;;15.26;79.06;101048.06;107911;1271;62111;-84
2022/08/28 04:17:57;;;;;;;11.60;2.90;;;;;;;15.25;79.10;101048.71;107819;1271;61182;-85
2022/08/28 04:20:25;;;;;;;10.00;2.80;;;;;;;15.25;79.15;101047.60;107780;1271;75000;-84
2022/08/28 04:22:52;;;;;;;10.50;2.70;;;;;;;15.27;79.17;101050.50;107594;1271;71650;-85
2022/08/28 04:25:21;;;;;;;11.80;3.00;;;;;;;15.28;79.04;101054.29;107432;1271;72918;-85
2022/08/28 04:27:50;;;;;;;13.40;3.30;;;;;;;15.28;78.92;101054.25;107361;1271;62668;-85
2022/08/28 04:30:17;;;;;;;10.10;3.00;;;;;;;15.30;79.03;101057.21;107444;1271;60387;-85
2022/08/28 04:32:47;;;;;;;10.50;3.10;;;;;;;15.32;79.03;101058.81;107638;1271;76808;-85
2022/08/28 04:35:15;;;;;;;9.50;3.00;;;;;;;15.32;79.01;101056.84;107416;1268;71759;-85
2022/08/28 04:37:45;;;;;;;11.60;2.90;;;;;;;15.31;78.89;101057.34;107407;1271;73016;-84
2022/08/28 04:40:14;;;;;;;11.70;3.00;;;;;;;15.31;79.03;101058.20;107791;1274;62072;-86
2022/08/28 04:42:43;;;;;;;12.30;3.30;;;;;;;15.32;79.11;101059.88;107852;1271;61624;-85
2022/08/28 04:45:10;;;;;;;13.20;2.70;;;;;;;15.32;79.18;101060.95;107782;1271;74939;-85
2022/08/28 04:47:37;;;;;;;9.30;2.60;;;;;;;15.31;79.24;101062.42;107871;1271;72566;-85
2022/08/28 04:50:05;;;;;;;11.10;2.70;;;;;;;15.30;79.34;101061.73;107966;1271;72653;-84
2022/08/28 04:52:32;;;;;;;10.00;3.00;;;;;;;15.30;79.54;101073.49;107697;1271;63165;-85
2022/08/28 04:55:00;;;;;;;10.60;2.50;;;;;;;15.32;79.37;101071.36;107650;1271;60268;-84
2022/08/28 04:57:27;;;;;;;12.20;3.00;;;;;;;15.32;79.32;101070.48;107609;1270;74806;-84
2022/08/28 04:59:59;;;;;;;13.90;3.10;;;;;;;15.32;79.28;101069.14;107563;1271;72162;-85
2022/08/28 05:02:26;;;;;;;10.00;2.90;;;;;;;15.35;79.29;101068.42;107571;1271;72150;-85
2022/08/28 05:04:53;;;;;;;9.00;2.70;;;;;;;15.38;79.28;101069.39;108080;1271;63192;-85
2022/08/28 05:07:20;;;;;;;10.90;3.00;;;;;;;15.39;79.04;101072.96;107262;1271;61375;-84
2022/08/28 05:09:51;;;;;;;12.80;3.20;;;;;;;15.41;78.95;101071.70;107742;1270;74905;-85
2022/08/28 05:12:18;;;;;;;10.00;3.20;;;;;;;15.43;78.96;101071.07;107628;1271;72102;-85
2022/08/28 05:14:45;;;;;;;9.50;2.80;;;;;;;15.46;78.87;101075.52;107613;1270;72888;-86
2022/08/28 05:17:13;;;;;;;12.10;2.90;;;;;;;15.48;78.73;101071.41;107259;1271;62091;-85
2022/08/28 05:19:40;;;;;;;10.20;3.10;;;;;;;15.52;78.62;101072.25;107398;1271;61355;-85
2022/08/28 05:22:08;;;;;;;11.90;2.70;;;;;;;15.54;78.38;101069.54;107116;1271;74677;-84
2022/08/28 05:24:36;;;;;;;10.10;3.00;;;;;;;15.57;78.28;101072.19;107477;1272;72442;-84
2022/08/28 05:27:04;;;;;;;11.10;3.00;;;;;;;15.57;78.05;101071.83;107276;1272;74229;-84
2022/08/28 05:29:32;;;;;;;11.30;2.80;;;;;;;15.58;78.16;101069.70;106951;1271;61367;-85
2022/08/28 05:31:59;;;;;;;10.00;2.90;;;;;;;15.59;78.06;101072.58;107792;1271;61647;-85
2022/08/28 05:34:26;;;;;;;10.50;3.30;;;;;;;15.59;78.05;101074.34;107372;1274;74865;-85
2022/08/28 05:36:54;;;;;;;10.20;2.60;;;;;;;15.62;77.92;101078.05;107444;1272;71742;-85
2022/08/28 05:39:21;;;;;;;10.20;2.90;;;;;;;15.63;77.77;101079.74;106737;1274;73808;-84
2022/08/28 05:41:51;;;;;;;11.70;2.90;;;;;;;15.66;77.71;101080.05;107579;1274;62976;-85
2022/08/28 05:44:22;;;;;;;10.80;2.80;;;;;;;15.70;77.56;101083.45;107622;1273;59986;-85
2022/08/28 05:46:49;;;;;;;10.90;2.80;;;;;;;15.74;77.62;101084.23;107454;1274;74873;-85
2022/08/28 05:49:18;;;;;;;9.50;2.60;;;;;;;15.77;77.50;101084.40;106844;1274;72619;-85
2022/08/28 05:51:46;;;;;;;10.10;2.60;;;;;;;15.80;77.56;101085.44;106981;1274;73885;-84
2022/08/28 05:54:14;;;;;;;9.20;3.00;;;;;;;15.84;77.28;101091.80;107010;1274;63829;-85
2022/08/28 05:56:44;;;;;;;9.80;2.40;;;;;;;15.90;77.11;101084.46;107588;1273;61172;-86
2022/08/28 05:59:12;;;;;;;9.60;2.60;;;;;;;15.97;76.92;101084.65;107188;1274;77547;-85
2022/08/28 06:01:47;;;;;;;7.70;2.50;;;;;;;16.01;76.75;101089.10;107770;1273;71590;-85
2022/08/28 06:04:23;;;;;;;11.40;2.50;;;;;;;16.06;76.57;101090.67;107220;1273;72958;-85
2022/08/28 06:06:50;;;;;;;11.30;2.60;;;;;;;16.12;76.08;101092.98;107540;1274;62035;-85
2022/08/28 06:09:23;;;;;;;9.40;3.00;;;;;;;16.15;75.96;101096.31;107684;1274;61576;-85
2022/08/28 06:11:57;;;;;;;13.60;2.90;;;;;;;16.18;76.02;101098.23;107710;1274;75434;-85
2022/08/28 06:14:25;;;;;;;9.70;2.50;;;;;;;16.25;76.08;101095.71;107575;1274;71436;-85
2022/08/28 06:16:54;;;;;;;11.50;2.90;;;;;;;16.33;75.40;101099.92;107808;1273;74003;-85
2022/08/28 06:19:23;;;;;;;11.90;2.50;;;;;;;16.36;74.79;101102.16;107330;1274;64263;-84
2022/08/28 06:21:54;;;;;;;9.80;2.70;;;;;;;16.40;75.00;101103.24;107416;1274;62067;-85
2022/08/28 06:24:21;;;;;;;10.70;2.60;;;;;;;16.43;75.31;101105.59;107418;1274;74903;-85
2022/08/28 06:26:48;;;;;;;9.10;2.70;;;;;;;16.46;75.12;101110.29;107228;1274;71314;-85
2022/08/28 06:29:17;;;;;;;7.10;2.30;;;;;;;16.46;75.39;101111.29;107273;1274;73995;-85
2022/08/28 06:31:51;;;;;;;11.70;3.30;;;;;;;16.50;75.47;101114.71;107532;1274;60835;-85
2022/08/28 06:34:18;;;;;;;10.20;3.00;;;;;;;16.57;75.32;101117.60;107496;1274;61381;-86
2022/08/28 06:36:45;;;;;;;8.30;2.50;;;;;;;16.61;75.13;101117.94;107352;1274;74177;-85
2022/08/28 06:39:19;;;;;;;10.40;2.70;;;;;;;16.66;74.98;101121.58;107187;1274;72295;-84
2022/08/28 06:41:45;;;;;;;10.30;2.90;;;;;;;16.72;74.57;101123.64;106338;1274;1510871;-86
2022/08/28 06:44:18;;;;;;;9.80;2.50;;;;;;;16.70;74.28;101127.97;107580;1273;60687;-84
2022/08/28 06:46:51;;;;;;;9.20;2.40;;;;;;;16.69;74.32;101126.52;107262;1273;60608;-85
2022/08/28 06:49:18;;;;;;;9.60;2.60;;;;;;;16.72;74.58;101127.34;107440;1274;75981;-85
2022/08/28 06:54:17;;;;;;;9.10;2.80;;;;;;;16.71;74.44;101134.60;107521;1261;71262;-85
2022/08/28 06:56:52;;;;;;;7.00;2.60;;;;;;;16.76;74.51;101136.83;107037;1271;61795;-87
2022/08/28 06:59:20;;;;;;;8.60;2.70;;;;;;;16.86;74.61;101135.92;107256;1271;61359;-86
2022/08/28 07:01:47;;;;;;;8.60;2.60;;;;;;;16.91;74.04;101138.27;107750;1271;76033;-85
2022/08/28 07:04:14;;;;;;;12.30;2.70;;;;;;;16.99;73.43;101139.00;107741;1271;72152;-85
2022/08/28 07:06:44;;;;;;;10.00;2.60;;;;;;;17.07;72.14;101142.67;107629;1271;74024;-84
2022/08/28 07:09:12;;;;;;;11.80;2.60;;;;;;;17.17;71.21;101143.24;107577;1271;63323;-84
2022/08/28 07:11:39;;;;;;;7.80;2.70;;;;;;;17.27;70.80;101143.65;107475;1271;60429;-86
2022/08/28 07:14:06;;;;;;;10.30;2.50;;;;;;;17.37;70.23;101140.09;107484;1271;78102;-85
2022/08/28 07:16:37;;;;;;;8.80;2.40;;;;;;;17.50;70.41;101139.40;107016;1271;71239;-86
2022/08/28 07:19:09;;;;;;;10.60;2.50;;;;;;;17.66;69.99;101141.67;107287;1271;72928;-86
2022/08/28 07:21:40;;;;;;;9.50;2.10;;;;;;;17.81;69.33;101138.86;107779;1271;62072;-86
2022/08/28 07:24:09;;;;;;;8.90;2.50;;;;;;;17.93;68.33;101143.34;107208;1271;61116;-86
2022/08/28 07:26:36;;;;;;;10.90;2.20;;;;;;;18.02;68.26;101147.86;107144;1271;76324;-86
2022/08/28 07:29:06;;;;;;;11.20;2.60;;;;;;;18.12;67.76;101145.21;107245;1271;72423;-86
2022/08/28 07:31:41;;;;;;;11.10;2.30;;;;;;;18.19;67.01;101152.23;107429;1271;72903;-86
2022/08/28 07:34:10;;;;;;;8.70;2.20;;;;;;;18.28;66.60;101151.20;107178;1271;62390;-86
2022/08/28 07:36:38;;;;;;;7.40;2.30;;;;;;;18.26;66.11;101147.20;107097;1271;61681;-86
2022/08/28 07:39:07;;;;;;;8.90;2.00;;;;;;;18.31;66.21;101147.00;107502;1271;75119;-86
2022/08/28 07:41:37;;;;;;;10.00;2.80;;;;;;;18.45;66.57;101150.23;107711;1271;71511;-86
2022/08/28 07:46:55;;;;;;;8.40;1.90;;;;;;;18.69;64.45;101153.39;107835;1271;61962;-86
2022/08/28 07:49:23;;;;;;;9.90;2.40;;;;;;;18.71;63.15;101151.64;107552;1271;61241;-85
2022/08/28 07:51:51;;;;;;;8.50;2.00;;;;;;;18.74;63.44;101151.21;107625;1271;75921;-86
2022/08/28 07:54:21;;;;;;;6.20;1.90;;;;;;;18.79;63.25;101152.31;107528;1271;71344;-86
2022/08/28 07:56:48;;;;;;;9.40;1.90;;;;;;;18.84;63.33;101152.67;107741;1273;74597;-85
2022/08/28 07:59:16;;;;;;;7.40;2.10;;;;;;;18.89;62.93;101152.69;107603;1271;63736;-86
2022/08/28 08:01:47;;;;;;;6.30;2.30;;;;;;;18.93;62.80;101155.39;107995;1271;60484;-86
2022/08/28 08:04:15;;;;;;;7.90;2.00;;;;;;;19.01;63.01;101150.70;107634;1271;75298;-86
2022/08/28 08:06:42;;;;;;;8.40;2.20;;;;;;;19.19;63.03;101153.81;107678;1264;71379;-86
2022/08/28 08:09:13;;;;;;;7.60;1.90;;;;;;;19.29;61.98;101150.19;107135;1271;73424;-86
2022/08/28 08:11:41;;;;;;;7.50;1.90;;;;;;;19.39;61.51;101152.55;107163;1271;62851;-85
2022/08/28 08:14:08;;;;;;;9.70;2.40;;;;;;;19.45;60.72;101153.48;107274;1271;61429;-86
2022/08/28 08:16:38;;;;;;;7.20;1.90;;;;;;;19.38;59.74;101158.17;107311;1271;74917;-86
2022/08/28 08:19:12;;;;;;;6.30;2.00;;;;;;;19.39;59.87;101153.20;107571;1271;70327;-86
2022/08/28 08:21:41;;;;;;;7.00;2.10;;;;;;;19.45;60.15;101160.01;107016;1271;73962;-87
2022/08/28 08:24:11;;;;;;;9.00;2.10;;;;;;;19.52;60.33;101159.73;107184;1271;61782;-86
2022/08/28 08:26:50;;;;;;;6.60;1.90;;;;;;;19.65;59.49;101155.05;107217;1271;61318;-86
2022/08/28 08:29:28;;;;;;;7.10;2.00;;;;;;;19.74;58.92;101159.48;107122;1271;75784;-86
2022/08/28 08:31:57;;;;;;;8.80;1.90;;;;;;;19.77;58.15;101155.48;107204;1271;71410;-85
2022/08/28 08:34:24;;;;;;;8.10;1.90;;;;;;;19.89;57.95;101156.48;107292;1271;72939;-85
2022/08/28 08:36:51;;;;;;;7.60;1.90;;;;;;;20.08;57.93;101153.12;107531;1271;61300;-86
2022/08/28 08:39:18;;;;;;;8.10;1.60;;;;;;;20.18;56.61;101150.16;107244;1271;61762;-86
2022/08/28 08:41:56;;;;;;;8.70;1.90;;;;;;;20.30;55.79;101149.64;107179;1271;75933;-84
2022/08/28 08:44:35;;;;;;;8.00;2.20;;;;;;;20.41;55.81;101150.14;107218;1272;71545;-86
2022/08/28 08:47:08;;;;;;;8.60;1.80;;;;;;;20.49;55.38;101148.13;107508;1271;72809;-85
2022/08/28 08:50:04;;;;;;;8.00;1.80;;;;;;;20.68;55.64;101144.39;107393;1272;61775;-85
2022/08/28 08:52:36;;;;;;;5.40;1.60;;;;;;;20.98;55.25;101141.62;107774;1271;60276;-85
2022/08/28 08:55:21;;;;;;;8.00;1.80;;;;;;;21.27;53.55;101140.83;107147;1271;74725;-84
2022/08/28 08:57:56;;;;;;;7.00;1.80;;;;;;;21.49;52.48;101141.38;107235;1271;72570;-86
2022/08/28 09:00:24;;;;;;;8.40;2.00;;;;;;;21.52;51.66;101136.24;106904;1272;73045;-85
2022/08/28 09:03:08;;;;;;;8.60;2.20;;;;;;;21.45;52.31;101138.36;107320;1271;61395;-86
2022/08/28 09:05:57;;;;;;;9.20;2.00;;;;;;;21.26;52.26;101147.23;107240;1271;60692;-86
2022/08/28 09:08:26;;;;;;;5.80;1.70;;;;;;;21.04;51.89;101148.04;107097;1273;76592;-85
2022/08/28 09:11:20;;;;;;;5.20;1.80;;;;;;;20.87;51.87;101157.85;106995;1273;71211;-84
2022/08/28 09:14:14;;;;;;;6.50;1.80;;;;;;;20.90;51.18;101153.73;107033;1274;72660;-84
2022/08/28 09:16:46;;;;;;;8.10;2.10;;;;;;;21.00;51.03;101147.18;107028;1273;60849;-88
2022/08/28 09:19:18;;;;;;;5.50;1.70;;;;;;;21.28;51.66;101148.53;107061;1274;61138;-82
2022/08/28 09:21:46;;;;;;;5.30;1.90;;;;;;;21.52;50.39;101151.68;107757;1274;76200;-84
2022/08/28 09:24:27;;;;;;;4.70;1.80;;;;;;;21.81;50.99;101150.29;107332;1274;72428;-83
2022/08/28 09:26:57;;;;;;;8.50;2.20;;;;;;;22.05;48.79;101154.13;107324;1273;72138;-84
2022/08/28 09:29:36;;;;;;;7.00;2.20;;;;;;;22.03;48.30;101151.92;107064;1273;61976;-84
2022/08/28 09:32:28;;;;;;;7.30;1.60;;;;;;;22.09;47.64;101150.90;108084;1273;60855;-84
2022/08/28 09:35:01;;;;;;;6.20;1.80;;;;;;;22.19;47.98;101144.40;107127;1273;74688;-84
2022/08/28 09:37:32;;;;;;;6.40;1.60;;;;;;;22.23;46.66;101145.73;107213;1273;74025;-83
2022/08/28 09:40:20;;;;;;;6.80;1.70;;;;;;;22.26;46.86;101139.91;107353;1274;74018;-84
2022/08/28 09:43:27;;;;;;;6.10;1.70;;;;;;;22.36;47.33;101145.66;108299;1273;60760;-84
2022/08/28 09:46:19;;;;;;;5.10;1.90;;;;;;;22.31;46.81;101146.54;108082;1273;61074;-83
2022/08/28 09:48:51;;;;;;;7.60;1.70;;;;;;;22.36;46.45;101150.79;107994;1274;75858;-83
2022/08/28 09:51:21;;;;;;;5.80;1.70;;;;;;;22.24;45.82;101150.80;107980;1274;70346;-83
2022/08/28 09:53:50;;;;;;;7.30;1.90;;;;;;;22.21;46.83;101151.46;108592;1273;72957;-84
2022/08/28 09:56:26;;;;;;;7.40;1.60;;;;;;;22.15;46.48;101146.33;107814;1274;60495;-85
2022/08/28 09:58:56;;;;;;;5.20;2.00;;;;;;;22.04;46.60;101156.73;108063;1274;61225;-85
2022/08/28 10:01:41;;;;;;;6.30;1.70;;;;;;;22.05;46.79;101148.77;107896;1275;75975;-84
2022/08/28 10:04:32;;;;;;;9.10;2.30;;;;;;;22.27;47.47;101148.08;108229;1274;71656;-84
2022/08/28 10:07:05;;;;;;;7.10;1.70;;;;;;;22.34;46.68;101150.33;108262;1274;72323;-84
2022/08/28 10:10:02;;;;;;;6.10;1.60;;;;;;;22.45;46.81;101146.59;107762;1274;61380;-86
2022/08/28 10:12:49;;;;;;;6.00;1.70;;;;;;;22.55;45.88;101151.64;108382;1274;60611;-85
2022/08/28 10:15:20;;;;;;;5.90;1.70;;;;;;;22.42;45.30;101149.11;108401;1274;75136;-85
2022/08/28 10:18:29;;;;;;;8.50;1.80;;;;;;;22.03;45.28;101158.95;108201;1274;71566;-85
2022/08/28 10:21:34;;;;;;;6.50;1.80;;;;;;;21.86;46.80;101160.17;108010;1274;73136;-85
2022/08/28 10:24:10;;;;;;;5.40;1.60;;;;;;;22.00;46.47;101155.88;108463;1274;60685;-85
2022/08/28 10:27:01;;;;;;;4.20;1.50;;;;;;;22.01;45.99;101156.42;108073;1274;60300;-85
2022/08/28 10:29:37;;;;;;;7.10;1.80;;;;;;;21.93;46.39;101151.05;107502;1274;77331;-84
2022/08/28 10:32:35;;;;;;;8.20;1.90;;;;;;;21.95;46.60;101154.36;107758;1274;71422;-84
2022/08/28 10:35:12;;;;;;;4.00;1.50;;;;;;;22.18;46.27;101150.38;107159;1274;74180;-84
2022/08/28 10:38:15;;;;;;;7.10;1.90;;;;;;;22.27;45.51;101155.77;107396;1274;61867;-83
2022/08/28 10:41:17;;;;;;;6.50;2.00;;;;;;;22.32;45.50;101148.84;107221;1274;61265;-85
2022/08/28 10:43:47;;;;;;;5.90;1.60;;;;;;;22.45;45.52;101146.96;107691;1274;73538;-84
2022/08/28 10:46:34;;;;;;;10.50;2.00;;;;;;;22.63;45.78;101150.35;107435;1274;71898;-84
2022/08/28 10:49:14;;;;;;;7.40;1.80;;;;;;;22.82;44.83;101145.91;107737;1263;71326;-84
2022/08/28 10:51:48;;;;;;;8.00;2.10;;;;;;;22.87;44.93;101140.53;107920;1273;61756;-84
2022/08/28 10:54:36;;;;;;;10.50;2.20;;;;;;;22.95;44.13;101141.35;107102;1274;61791;-84
2022/08/28 10:57:23;;;;;;;6.40;1.50;;;;;;;23.08;43.33;101151.71;107769;1272;75698;-83
2022/08/28 10:59:53;;;;;;;5.80;1.70;;;;;;;23.04;43.11;101144.13;107675;1274;71493;-83
2022/08/28 11:02:24;;;;;;;5.00;1.70;;;;;;;23.04;42.79;101146.34;107599;1274;74753;-83
2022/08/28 11:04:54;;;;;;;6.60;1.50;;;;;;;23.01;42.81;101141.55;107323;1274;60420;-84
2022/08/28 11:07:36;;;;;;;5.30;1.80;;;;;;;23.21;43.45;101141.77;107393;1274;61261;-83
2022/08/28 11:10:34;;;;;;;5.10;1.40;;;;;;;23.46;42.70;101143.64;107939;1272;77144;-83
2022/08/28 11:13:05;;;;;;;6.30;1.90;;;;;;;23.43;42.22;101150.32;107202;1274;72403;-83
2022/08/28 11:15:31;;;;;;;4.90;1.50;;;;;;;23.30;42.10;101153.98;107682;1274;71840;-85
2022/08/28 11:18:15;;;;;;;3.80;1.70;;;;;;;23.02;42.23;101148.57;107972;1273;60742;-85
2022/08/28 11:20:58;;;;;;;5.60;1.90;;;;;;;23.03;42.95;101147.23;107548;1273;61057;-84
2022/08/28 11:23:44;;;;;;;4.80;1.70;;;;;;;23.18;43.64;101142.77;107631;1273;74970;-83
2022/08/28 11:26:13;;;;;;;4.80;1.50;;;;;;;23.47;43.30;101142.79;107640;1272;72124;-83
2022/08/28 11:28:44;;;;;;;6.80;2.00;;;;;;;23.55;42.96;101147.39;108130;1274;74502;-83
2022/08/28 11:31:14;;;;;;;4.60;1.70;;;;;;;23.61;42.17;101148.11;107550;1274;61267;-84
2022/08/28 11:33:57;;;;;;;6.50;1.70;;;;;;;23.63;42.67;101146.63;107496;1272;60437;-83
2022/08/28 11:36:28;;;;;;;4.00;1.60;;;;;;;23.74;42.13;101147.80;107805;1274;75821;-84
2022/08/28 11:38:55;;;;;;;6.30;1.70;;;;;;;23.53;40.87;101158.04;107615;1273;71876;-84
2022/08/28 11:41:26;;;;;;;5.80;1.50;;;;;;;23.44;41.43;101153.52;107845;1272;73054;-83
2022/08/28 11:44:08;;;;;;;7.20;2.00;;;;;;;23.48;41.38;101148.98;107956;1273;61233;-84